Latest Weather Observations for Arlington Reef

IDQ60801

Issued at 10:21 am EST Monday 18 February 2019 (issued every 10 minutes, with the page automatically refreshed every 10 minutes)

About weather observations | Map of weather stations | Latest weather observations for QLD | Other Formats
Station Details ID: 200879 Name: ARLINGTON REEF Lat: -16.72 Lon: 146.11 Height: 0.0 m
Data from the previous 72 hours. | See also: Recent months at Arlington Reef
Date/Time
EST
Temp
°C
App
Temp
°C
Dew
Point
°C
Rel
Hum
%
Delta-T
°C
Wind Press
QNH
hPa
Press
MSL
hPa
Rain since
9am
mm
Dir  Spd
km/h
Gust
km/h
Spd
kts
Gust
kts
18/10:00am - - - - - NNE 6 7 3 4 1011.3 1011.3 -
18/09:30am - - - - - CALM 0 0 0 0 1011.5 1011.5 -
18/09:00am - - - - - CALM 0 0 0 0 1011.4 1011.4 -
18/08:30am - - - - - CALM 0 0 0 0 1011.2 1011.2 -
18/08:00am - - - - - CALM 0 0 0 0 1010.8 1010.8 -
18/07:30am - - - - - CALM 0 0 0 0 1010.4 1010.4 -
18/07:00am - - - - - ESE 2 6 1 3 1010.1 1010.1 -
18/06:30am - - - - - ESE 4 6 2 3 1009.7 1009.7 -
18/06:00am - - - - - E 6 7 3 4 1009.4 1009.4 -
18/05:30am - - - - - E 4 7 2 4 1009.4 1009.4 -
18/05:00am - - - - - E 7 9 4 5 1009.0 1009.0 -
18/04:30am - - - - - ESE 13 15 7 8 1008.8 1008.8 -
18/04:00am - - - - - ESE 11 15 6 8 1008.8 1008.8 -
18/03:30am - - - - - E 7 11 4 6 1008.7 1008.7 -
18/03:00am - - - - - E 6 7 3 4 1008.8 1008.8 -
18/02:30am - - - - - E 7 9 4 5 1009.0 1009.0 -
18/02:00am - - - - - E 11 13 6 7 1009.2 1009.2 -
18/01:30am - - - - - ESE 6 7 3 4 1009.5 1009.5 -
18/01:00am - - - - - ESE 7 9 4 5 1009.6 1009.6 -
18/12:30am - - - - - ESE 4 6 2 3 1009.9 1009.9 -
18/12:00am - - - - - S 2 4 1 2 1010.2 1010.2 -
 
Date/Time
EST
Temp
°C
App
Temp
°C
Dew
Point
°C
Rel
Hum
%
Delta-T
°C
Wind Press
QNH
hPa
Press
MSL
hPa
Rain since
9am
mm
Dir  Spd
km/h
Gust
km/h
Spd
kts
Gust
kts
17/11:30pm - - - - - SSW 2 6 1 3 1010.5 1010.5 -
17/11:00pm - - - - - SSE 4 6 2 3 1010.7 1010.7 -
17/10:30pm - - - - - SSE 6 9 3 5 1010.4 1010.4 -
17/10:00pm - - - - - SE 6 9 3 5 1010.4 1010.4 -
17/09:30pm - - - - - S 6 9 3 5 1010.3 1010.3 -
17/09:00pm - - - - - S 4 6 2 3 1009.7 1009.7 -
17/08:30pm - - - - - SE 6 9 3 5 1009.6 1009.6 -
17/08:00pm - - - - - SE 7 9 4 5 1009.5 1009.5 -
17/07:30pm - - - - - ESE 7 9 4 5 1009.3 1009.3 -
17/07:00pm - - - - - SE 11 13 6 7 1008.8 1008.8 -
17/06:30pm - - - - - SE 9 13 5 7 1008.4 1008.4 -
17/06:00pm - - - - - ESE 11 15 6 8 1008.2 1008.2 -
17/05:30pm - - - - - SE 13 17 7 9 1008.2 1008.2 -
17/05:00pm - - - - - ESE 15 17 8 9 1008.1 1008.1 -
17/04:30pm - - - - - ESE 11 17 6 9 1008.0 1008.0 -
17/04:00pm - - - - - ESE 13 17 7 9 1008.1 1008.1 -
17/03:30pm - - - - - ESE 13 17 7 9 1008.5 1008.5 -
17/03:00pm - - - - - ESE 17 20 9 11 1008.9 1008.9 -
17/02:30pm - - - - - ESE 19 22 10 12 1009.1 1009.1 -
17/02:00pm - - - - - ESE 24 26 13 14 1009.3 1009.3 -
17/01:30pm - - - - - SE 24 30 13 16 1010.0 1010.0 -
17/01:00pm - - - - - SSE 15 20 8 11 1010.6 1010.6 -
17/12:30pm - - - - - ESE 13 17 7 9 1011.1 1011.1 -
17/12:00pm - - - - - S 20 24 11 13 1011.4 1011.4 -
17/11:30am - - - - - S 19 20 10 11 1011.7 1011.7 -
17/11:00am - - - - - S 17 20 9 11 1012.0 1012.0 -
17/10:30am - - - - - SSE 19 22 10 12 1012.1 1012.1 -
17/10:00am - - - - - SSE 19 22 10 12 1012.1 1012.1 -
17/09:30am - - - - - S 20 24 11 13 1012.2 1012.2 -
17/09:00am - - - - - S 20 24 11 13 1012.0 1012.0 -
17/08:30am - - - - - S 17 20 9 11 1011.8 1011.8 -
17/08:00am - - - - - S 15 19 8 10 1011.7 1011.7 -
17/07:30am - - - - - S 15 19 8 10 1011.5 1011.5 -
17/07:00am - - - - - S 17 19 9 10 1011.1 1011.1 -
17/06:30am - - - - - S 15 19 8 10 1010.8 1010.8 -
17/06:00am - - - - - S 15 20 8 11 1010.7 1010.7 -
17/05:30am - - - - - S 15 19 8 10 1010.3 1010.3 -
17/05:00am - - - - - S 17 20 9 11 1010.1 1010.1 -
17/04:30am - - - - - SSW 17 19 9 10 1009.8 1009.8 -
17/04:00am - - - - - SSW 20 22 11 12 1009.7 1009.7 -
17/03:30am - - - - - SSE 17 20 9 11 1009.7 1009.7 -
17/03:00am - - - - - SSE 19 22 10 12 1010.0 1010.0 -
17/02:30am - - - - - SSE 13 17 7 9 1010.3 1010.3 -
17/02:00am - - - - - SSE 11 15 6 8 1010.6 1010.6 -
17/01:30am - - - - - S 19 22 10 12 1010.9 1010.9 -
17/01:00am - - - - - SSE 15 19 8 10 1011.4 1011.4 -
17/12:30am - - - - - SSE 13 17 7 9 1011.6 1011.6 -
17/12:00am - - - - - SSE 11 15 6 8 1011.9 1011.9 -
 
Date/Time
EST
Temp
°C
App
Temp
°C
Dew
Point
°C
Rel
Hum
%
Delta-T
°C
Wind Press
QNH
hPa
Press
MSL
hPa
Rain since
9am
mm
Dir  Spd
km/h
Gust
km/h
Spd
kts
Gust
kts
16/11:30pm - - - - - SE 15 19 8 10 1012.2 1012.2 -
16/11:00pm - - - - - SE 17 20 9 11 1012.3 1012.3 -
16/10:30pm - - - - - SE 17 20 9 11 1012.2 1012.2 -
16/10:00pm - - - - - SE 19 20 10 11 1012.0 1012.0 -
16/09:30pm - - - - - SE 20 26 11 14 1011.8 1011.8 -
16/09:00pm - - - - - SE 24 28 13 15 1011.6 1011.6 -
16/08:30pm - - - - - SE 26 32 14 17 1011.3 1011.3 -
16/08:00pm - - - - - SE 28 33 15 18 1010.9 1010.9 -
16/07:30pm - - - - - SSE 28 32 15 17 1010.3 1010.3 -
16/07:00pm - - - - - SSE 26 32 14 17 1010.0 1010.0 -
16/06:30pm - - - - - SSE 24 30 13 16 1009.9 1009.9 -
16/06:00pm - - - - - SSE 26 32 14 17 1009.6 1009.6 -
16/05:30pm - - - - - SE 26 30 14 16 1009.4 1009.4 -
16/05:00pm - - - - - SSE 26 32 14 17 1009.4 1009.4 -
16/04:30pm - - - - - SSE 26 32 14 17 1009.5 1009.5 -
16/04:00pm - - - - - SSE 24 30 13 16 1009.8 1009.8 -
16/03:30pm - - - - - SSE 24 30 13 16 1010.0 1010.0 -
16/03:00pm - - - - - SSE 22 28 12 15 1010.4 1010.4 -
16/02:30pm - - - - - SSE 20 26 11 14 1010.8 1010.8 -
16/02:00pm - - - - - SSE 20 26 11 14 1011.0 1011.0 -
16/01:30pm - - - - - SSE 22 26 12 14 1011.6 1011.6 -
16/01:00pm - - - - - SSE 22 26 12 14 1012.1 1012.1 -
16/12:30pm - - - - - SSE 22 24 12 13 1012.7 1012.7 -
16/12:00pm - - - - - SSE 22 26 12 14 1013.1 1013.1 -
16/11:30am - - - - - SSE 22 24 12 13 1013.4 1013.4 -
16/11:00am - - - - - SSE 22 26 12 14 1013.7 1013.7 -
16/10:30am - - - - - SSE 24 30 13 16 1014.0 1014.0 -
16/10:00am - - - - - S 22 28 12 15 1014.1 1014.1 -
16/09:30am - - - - - SSE 22 26 12 14 1014.1 1014.1 -
16/09:00am - - - - - S 22 28 12 15 1014.1 1014.1 -
16/08:30am - - - - - S 24 30 13 16 1013.6 1013.6 -
16/08:00am - - - - - SSE 26 32 14 17 1013.4 1013.4 -
16/07:30am - - - - - SSE 28 32 15 17 1012.8 1012.8 -
16/07:00am - - - - - SSE 26 30 14 16 1012.7 1012.7 -
16/06:30am - - - - - S 24 28 13 15 1012.4 1012.4 -
16/06:00am - - - - - SSE 20 24 11 13 1012.2 1012.2 -
16/05:30am - - - - - S 26 30 14 16 1011.9 1011.9 -
16/05:00am - - - - - S 20 26 11 14 1011.8 1011.8 -
16/04:30am - - - - - SSE 24 30 13 16 1011.7 1011.7 -
16/04:00am - - - - - SSE 26 32 14 17 1011.6 1011.6 -
16/03:30am - - - - - SSE 24 28 13 15 1011.5 1011.5 -
16/03:00am - - - - - SSE 24 28 13 15 1011.7 1011.7 -
16/02:30am - - - - - SSE 22 26 12 14 1011.9 1011.9 -
16/02:00am - - - - - SSE 22 26 12 14 1012.0 1012.0 -
16/01:30am - - - - - SSE 24 28 13 15 1012.2 1012.2 -
16/01:00am - - - - - SSE 24 30 13 16 1012.2 1012.2 -
16/12:30am - - - - - SE 22 28 12 15 1012.5 1012.5 -
16/12:00am - - - - - SE 22 26 12 14 1012.9 1012.9 -
 
Date/Time
EST
Temp
°C
App
Temp
°C
Dew
Point
°C
Rel
Hum
%
Delta-T
°C
Wind Press
QNH
hPa
Press
MSL
hPa
Rain since
9am
mm
Dir  Spd
km/h
Gust
km/h
Spd
kts
Gust
kts
15/11:30pm - - - - - SE 22 26 12 14 1013.0 1013.0 -
15/11:00pm - - - - - SE 26 30 14 16 1013.2 1013.2 -
15/10:30pm - - - - - SE 26 33 14 18 1013.2 1013.2 -
15/10:00pm - - - - - SE 28 32 15 17 1012.9 1012.9 -
15/09:30pm - - - - - SE 26 33 14 18 1013.0 1013.0 -
15/09:00pm - - - - - SE 28 32 15 17 1012.5 1012.5 -
15/08:30pm - - - - - SE 28 32 15 17 1012.4 1012.4 -
15/08:00pm - - - - - SE 28 32 15 17 1012.0 1012.0 -
15/07:30pm - - - - - SE 28 32 15 17 1011.5 1011.5 -
15/07:00pm - - - - - SE 26 32 14 17 1011.2 1011.2 -
15/06:30pm - - - - - SE 26 32 14 17 1010.8 1010.8 -
15/06:00pm - - - - - SE 28 32 15 17 1010.4 1010.4 -
15/05:30pm - - - - - SE 28 32 15 17 1010.3 1010.3 -
15/05:00pm - - - - - SE 30 33 16 18 1010.1 1010.1 -
15/04:30pm - - - - - SE 24 32 13 17 1010.1 1010.1 -
15/04:00pm - - - - - SE 28 32 15 17 1009.9 1009.9 -
15/03:30pm - - - - - SE 26 30 14 16 1009.9 1009.9 -
15/03:00pm - - - - - ESE 24 28 13 15 1010.3 1010.3 -
15/02:30pm - - - - - ESE 26 30 14 16 1010.6 1010.6 -
15/02:00pm - - - - - SE 26 28 14 15 1010.8 1010.8 -
15/01:30pm - - - - - SE 24 26 13 14 1011.4 1011.4 -
15/01:00pm - - - - - SE 24 28 13 15 1011.6 1011.6 -
15/12:30pm - - - - - SE 22 26 12 14 1011.8 1011.8 -
15/12:00pm - - - - - SE 24 30 13 16 1012.1 1012.1 -
15/11:30am - - - - - SE 26 30 14 16 1012.2 1012.2 -
15/11:00am - - - - - SE 28 32 15 17 1012.5 1012.5 -
15/10:30am - - - - - SE 28 32 15 17 1012.6 1012.6 -

Other Formats:

Comma delimited format used in spreadsheet applications
http://www.bom.gov.au/fwo/IDQ60801/IDQ60801.94284.axf

JavaScript Object Notation format (JSON) in row-major order
http://www.bom.gov.au/fwo/IDQ60801/IDQ60801.94284.json